Tanana, AK

4:58 AM AKST on December 11, 2016 (GMT -0900)
Calhoun Memorial | | Change Station

Elev 220 ft 65.18 °N, 152.11 °W | Updated 6 minutes ago

Clear
Clear
-2 °F
Feels Like -14 °F
N
6
Wind Variable Wind from ENE

Today
High -- | Low -- °F
--% Chance of Precip.
Yesterday
High -- | Low -- °F
Precip. -- in
Pressure 30.55 in
Visibility 10.0 miles
Clouds Clear
Windchill -14 °F
Dew Point -12 °F
Humidity 63%
Rainfall 0.00 in
Snow Depth Not available.
11:10 AM 2:53 PM
Waxing Gibbous, 91% visible
METAR PATA 111352Z AUTO 06005KT 10SM CLR M19/M24 A3052 RMK AO2 SLP345 T11891244 TSNO PNO $
Pressure 30.55 in
Visibility 10.0 miles
Clouds Clear
Windchill -14 °F
Dew Point -12 °F
Humidity 63%
Rainfall 0.00 in
Snow Depth Not available.
11:10 AM 2:53 PM
Waxing Gibbous, 91% visible
METAR PATA 111352Z AUTO 06005KT 10SM CLR M19/M24 A3052 RMK AO2 SLP345 T11891244 TSNO PNO $

10-Day Weather Forecast

Almanac

Astronomy

Dec. 11, 2016 Rise Set
Actual Time
Civil Twilight
Nautical Twilight
Astronomical Twilight
Moon
Length of Visible Light
Length of Day
Tomorrow will be .
, % of the Moon is Illuminated

Today's Extremes

State Highs State Lows

Community

WunderPhotos

Upload Photos

1,956,708 photos uploaded!

WunderBlog® & News

Nearby

Air Quality

  Air Quality AQ Index Pollutant
Not available.

Snow Depth

Station Depth Elevation

Earthquake Activity

City Distance Mag. Time & Date
Minimum magnitude displayed is 2.5.

Coastal Water Temperatures

Place Temperature

Stations

Nearby Weather Stations

Station Location Temp. Windchill Dew Point Humidity Wind Precip. Elev Updated Type
                   

Watches & Warnings

There are currently no watches in effect.